createdAt,value
2023-05-25T00:02:06.911Z,6.45
2023-05-25T00:04:55.002Z,5.93
2023-05-25T00:07:42.877Z,5.38
2023-05-25T00:10:30.841Z,6.07
2023-05-25T00:13:18.626Z,6.28
2023-05-25T00:16:07.304Z,5.95
2023-05-25T00:18:57.903Z,6.22
2023-05-25T00:21:48.304Z,5.88
2023-05-25T00:24:36.340Z,6.20
2023-05-25T00:27:24.630Z,5.70
2023-05-25T00:30:13.421Z,7.25
2023-05-25T00:33:02.021Z,5.97
2023-05-25T00:35:52.702Z,5.95
2023-05-25T00:38:41.006Z,6.65
2023-05-25T00:41:29.381Z,5.85
2023-05-25T00:44:21.683Z,5.95
2023-05-25T00:47:09.842Z,5.97
2023-05-25T00:49:58.984Z,6.10
2023-05-25T00:52:48.762Z,5.60
2023-05-25T00:55:40.261Z,6.35
2023-05-25T00:58:31.082Z,6.85
2023-05-25T01:01:22.134Z,6.05
2023-05-25T01:04:13.425Z,5.85
2023-05-25T01:07:02.385Z,5.95
2023-05-25T01:09:58.177Z,5.80
2023-05-25T01:12:47.081Z,5.65
2023-05-25T01:15:35.245Z,6.43
2023-05-25T01:18:23.107Z,6.07
2023-05-25T01:21:20.351Z,6.55
2023-05-25T01:24:17.657Z,6.18
2023-05-25T01:27:14.043Z,6.72
2023-05-25T01:30:03.830Z,7.50
2023-05-25T01:32:52.003Z,6.32
2023-05-25T01:35:40.565Z,6.53
2023-05-25T01:38:29.714Z,6.95
2023-05-25T01:41:17.746Z,5.88
2023-05-25T01:44:07.709Z,5.72
2023-05-25T01:47:03.754Z,6.32
2023-05-25T01:50:01.317Z,6.05
2023-05-25T01:52:54.922Z,6.10
2023-05-25T01:55:54.860Z,5.63
2023-05-25T01:58:45.623Z,5.82
2023-05-25T02:01:36.606Z,6.03
2023-05-25T02:04:24.666Z,6.25
2023-05-25T02:07:12.522Z,5.18
2023-05-25T02:10:00.670Z,6.45
2023-05-25T02:12:49.735Z,5.70
2023-05-25T02:15:37.785Z,6.13
2023-05-25T02:18:26.506Z,6.35
2023-05-25T02:21:14.321Z,6.50
2023-05-25T02:24:02.021Z,6.57
2023-05-25T02:26:49.730Z,6.13
2023-05-25T02:29:38.923Z,5.97
2023-05-25T02:32:26.624Z,6.95
2023-05-25T02:35:14.695Z,6.05
2023-05-25T02:38:02.849Z,6.35
2023-05-25T02:40:50.828Z,6.15
2023-05-25T02:43:39.385Z,6.18
2023-05-25T02:46:28.765Z,5.38
2023-05-25T02:49:16.789Z,6.13
2023-05-25T02:52:05.175Z,6.88
2023-05-25T02:54:53.115Z,5.57
2023-05-25T02:57:41.081Z,6.53
2023-05-25T03:00:28.825Z,5.95
2023-05-25T03:03:17.929Z,5.80
2023-05-25T03:06:05.961Z,5.85
2023-05-25T03:08:53.868Z,5.32
2023-05-25T03:11:41.587Z,6.80
2023-05-25T03:14:29.590Z,5.82
2023-05-25T03:17:17.405Z,5.95
2023-05-25T03:20:10.613Z,5.85
2023-05-25T03:22:58.445Z,6.57
2023-05-25T03:25:46.819Z,6.03
2023-05-25T03:28:34.861Z,6.53
2023-05-25T03:31:22.563Z,6.55
2023-05-25T03:34:10.677Z,6.13
2023-05-25T03:36:59.821Z,6.13
2023-05-25T03:39:47.610Z,6.85
2023-05-25T03:42:35.570Z,6.13
2023-05-25T03:45:23.359Z,6.55
2023-05-25T03:48:11.237Z,6.53
2023-05-25T03:50:59.203Z,7.30
2023-05-25T03:53:48.540Z,6.82
2023-05-25T03:56:36.709Z,6.30
2023-05-25T03:59:25.654Z,7.10
2023-05-25T04:02:13.441Z,6.13
2023-05-25T04:05:01.122Z,6.82
2023-05-25T04:07:49.151Z,6.53
2023-05-25T04:10:38.251Z,6.35
2023-05-25T04:13:26.388Z,8.23
2023-05-25T04:16:14.832Z,7.80
2023-05-25T04:19:02.546Z,8.02
2023-05-25T04:21:50.298Z,8.18
2023-05-25T04:24:37.961Z,7.85
2023-05-25T04:27:28.485Z,7.32
2023-05-25T04:30:16.761Z,6.97
2023-05-25T04:33:04.967Z,12.52
2023-05-25T04:35:54.483Z,8.00
2023-05-25T04:38:43.047Z,6.30
2023-05-25T04:41:31.090Z,7.32
2023-05-25T04:44:20.674Z,7.40
2023-05-25T04:47:08.787Z,6.68
2023-05-25T04:49:56.836Z,6.97
2023-05-25T04:52:44.561Z,7.32
2023-05-25T04:55:32.299Z,7.43
2023-05-25T04:58:19.971Z,7.78
2023-05-25T05:01:09.097Z,7.70
2023-05-25T05:03:57.101Z,8.10
2023-05-25T05:06:45.430Z,7.45
2023-05-25T05:09:33.283Z,9.15
2023-05-25T05:12:21.381Z,8.82
2023-05-25T05:15:09.894Z,8.55
2023-05-25T05:17:58.992Z,7.72
2023-05-25T05:20:47.087Z,7.47
2023-05-25T05:23:34.830Z,8.55
2023-05-25T05:26:23.120Z,7.90
2023-05-25T05:29:11.209Z,9.02
2023-05-25T05:31:59.205Z,7.70
2023-05-25T05:34:48.377Z,7.47
2023-05-25T05:37:36.354Z,7.53
2023-05-25T05:40:26.214Z,6.55
2023-05-25T05:43:15.144Z,7.05
2023-05-25T05:46:03.225Z,6.43
2023-05-25T05:48:51.061Z,10.82
2023-05-25T05:51:40.241Z,8.40
2023-05-25T05:54:29.118Z,8.55
2023-05-25T05:57:16.777Z,8.43
2023-05-25T06:00:06.992Z,6.95
2023-05-25T06:02:55.178Z,7.82
2023-05-25T06:05:43.498Z,8.57
2023-05-25T06:08:32.784Z,8.18
2023-05-25T06:11:20.462Z,8.48
2023-05-25T06:14:08.503Z,8.55
2023-05-25T06:16:56.359Z,8.95
2023-05-25T06:19:44.395Z,7.72
2023-05-25T06:22:33.421Z,7.93
2023-05-25T06:25:22.958Z,8.07
2023-05-25T06:28:10.778Z,7.88
2023-05-25T06:30:58.852Z,8.63
2023-05-25T06:33:46.704Z,7.55
2023-05-25T06:36:34.405Z,8.05
2023-05-25T06:39:22.318Z,7.97
2023-05-25T06:42:12.434Z,7.90
2023-05-25T06:45:00.515Z,8.02
2023-05-25T06:47:48.342Z,6.85
2023-05-25T06:50:36.093Z,8.30
2023-05-25T06:53:23.855Z,8.63
2023-05-25T06:56:11.741Z,8.30
2023-05-25T06:59:01.118Z,7.72
2023-05-25T07:01:48.854Z,7.78
2023-05-25T07:04:36.964Z,7.47
2023-05-25T07:07:24.704Z,7.10
2023-05-25T07:10:12.804Z,7.75
2023-05-25T07:13:00.431Z,7.28
2023-05-25T07:15:49.569Z,7.95
2023-05-25T07:18:40.796Z,7.53
2023-05-25T07:21:28.730Z,7.72
2023-05-25T07:24:16.566Z,8.10
2023-05-25T07:27:04.928Z,8.85
2023-05-25T07:29:52.798Z,9.05
2023-05-25T07:32:42.649Z,8.38
2023-05-25T07:35:30.508Z,7.90
2023-05-25T07:38:18.660Z,8.07
2023-05-25T07:41:06.572Z,8.52
2023-05-25T07:43:54.441Z,8.23
2023-05-25T07:46:42.191Z,6.97
2023-05-25T07:49:31.274Z,8.48
2023-05-25T07:52:19.634Z,8.18
2023-05-25T07:55:08.402Z,7.15
2023-05-25T07:57:56.418Z,6.78
2023-05-25T08:00:44.695Z,8.18
2023-05-25T08:03:48.262Z,7.07
2023-05-25T08:09:26.279Z,8.15
2023-05-25T08:12:34.295Z,7.45
2023-05-25T08:15:21.775Z,7.25
2023-05-25T08:18:09.816Z,7.82
2023-05-25T08:20:57.848Z,6.18
2023-05-25T08:23:47.043Z,6.93
2023-05-25T08:26:53.085Z,6.90
2023-05-25T08:29:42.282Z,5.90
2023-05-25T08:32:30.037Z,6.50
2023-05-25T08:35:18.168Z,6.07
2023-05-25T08:38:06.024Z,6.35
2023-05-25T08:41:05.903Z,6.35
2023-05-25T08:43:54.201Z,5.90
2023-05-25T08:46:42.296Z,6.03
2023-05-25T08:49:31.630Z,5.93
2023-05-25T08:52:23.509Z,6.85
2023-05-25T08:55:12.357Z,6.15
2023-05-25T08:58:08.264Z,6.80
2023-05-25T09:00:59.799Z,6.07
2023-05-25T09:03:48.336Z,5.78
2023-05-25T09:06:38.617Z,6.78
2023-05-25T09:09:26.874Z,6.07
2023-05-25T09:12:16.562Z,6.45
2023-05-25T09:15:06.319Z,6.32
2023-05-25T09:17:54.182Z,6.00
2023-05-25T09:20:45.105Z,6.05
2023-05-25T09:23:35.588Z,6.28
2023-05-25T09:26:23.625Z,6.75
2023-05-25T09:29:14.663Z,6.72
2023-05-25T09:32:05.681Z,5.65
2023-05-25T09:34:55.588Z,6.32
2023-05-25T09:37:44.770Z,6.93
2023-05-25T09:40:34.365Z,5.47
2023-05-25T09:43:36.424Z,5.97
2023-05-25T09:46:28.407Z,7.60
2023-05-25T09:49:17.671Z,7.72
2023-05-25T09:52:06.059Z,6.28
2023-05-25T09:54:55.053Z,6.60
2023-05-25T09:57:44.286Z,6.10
2023-05-25T10:00:32.361Z,5.35
2023-05-25T10:03:21.954Z,6.28
2023-05-25T10:06:11.683Z,4.72
2023-05-25T10:08:59.771Z,5.25
2023-05-25T10:11:48.034Z,5.60
2023-05-25T10:14:38.872Z,5.10
2023-05-25T10:17:29.059Z,4.80
2023-05-25T10:20:17.432Z,6.03
2023-05-25T10:23:12.608Z,5.38
2023-05-25T10:26:04.662Z,6.03
2023-05-25T10:28:53.127Z,5.82
2023-05-25T10:31:41.430Z,6.68
2023-05-25T10:34:30.131Z,5.20
2023-05-25T10:37:18.243Z,5.32
2023-05-25T10:40:09.722Z,5.30
2023-05-25T10:42:57.804Z,6.15
2023-05-25T10:45:45.833Z,5.65
2023-05-25T10:48:37.887Z,5.53
2023-05-25T10:51:38.630Z,4.95
2023-05-25T10:54:30.369Z,4.63
2023-05-25T10:57:24.460Z,4.85
2023-05-25T11:03:03.396Z,5.38
2023-05-25T11:05:52.246Z,4.97
2023-05-25T11:08:55.853Z,4.57
2023-05-25T11:12:03.775Z,3.97
2023-05-25T11:15:15.508Z,5.03
2023-05-25T11:18:03.578Z,4.65
2023-05-25T11:20:51.501Z,5.20
2023-05-25T11:23:53.296Z,4.70
2023-05-25T11:26:54.798Z,4.70
2023-05-25T11:29:42.591Z,4.22
2023-05-25T11:32:31.763Z,4.82
2023-05-25T11:35:19.494Z,4.45
2023-05-25T11:38:08.623Z,5.07
2023-05-25T11:40:56.695Z,5.15
2023-05-25T11:43:46.912Z,4.70
2023-05-25T11:46:35.531Z,6.05
2023-05-25T11:49:25.978Z,4.53
2023-05-25T11:52:15.388Z,4.22
2023-05-25T11:55:03.290Z,5.03
2023-05-25T11:57:58.855Z,4.78
2023-05-25T12:00:46.676Z,4.97
2023-05-25T12:03:34.766Z,4.95
2023-05-25T12:06:28.741Z,5.70
2023-05-25T12:09:21.009Z,4.30
2023-05-25T12:12:09.396Z,4.30
2023-05-25T12:14:59.094Z,4.50
2023-05-25T12:17:47.233Z,5.40
2023-05-25T12:20:38.815Z,5.38
2023-05-25T12:23:28.145Z,4.80
2023-05-25T12:26:17.752Z,4.10
2023-05-25T12:29:07.265Z,5.15
2023-05-25T12:32:02.670Z,5.18
2023-05-25T12:34:50.527Z,6.28
2023-05-25T12:37:38.333Z,5.13
2023-05-25T12:40:28.723Z,6.10
2023-05-25T12:43:17.729Z,5.38
2023-05-25T12:46:05.634Z,5.18
2023-05-25T12:48:53.439Z,5.25
2023-05-25T12:51:41.200Z,4.55
2023-05-25T12:54:45.848Z,5.07
2023-05-25T12:57:36.898Z,5.00
2023-05-25T13:00:26.788Z,5.15
2023-05-25T13:03:14.628Z,5.15
2023-05-25T13:06:03.427Z,5.25
2023-05-25T13:08:51.383Z,6.82
2023-05-25T13:11:39.112Z,5.07
2023-05-25T13:14:28.460Z,3.55
2023-05-25T13:17:16.351Z,3.17
2023-05-25T13:20:05.131Z,3.70
2023-05-25T13:22:55.739Z,4.05
2023-05-25T13:25:43.601Z,3.35
2023-05-25T13:28:31.486Z,3.63
2023-05-25T13:31:20.658Z,3.95
2023-05-25T13:34:08.674Z,3.58
2023-05-25T13:36:56.649Z,3.78
2023-05-25T13:39:44.584Z,4.45
2023-05-25T13:42:32.468Z,4.38
2023-05-25T13:45:20.674Z,5.18
2023-05-25T13:48:09.828Z,5.88
2023-05-25T13:50:57.606Z,4.78
2023-05-25T13:53:45.784Z,4.93
2023-05-25T13:56:33.541Z,5.28
2023-05-25T13:59:21.573Z,5.88
2023-05-25T14:02:09.287Z,6.22
2023-05-25T14:04:58.629Z,6.00
2023-05-25T14:07:47.186Z,5.82
2023-05-25T14:10:35.000Z,6.13
2023-05-25T14:13:23.046Z,6.60
2023-05-25T14:16:10.985Z,7.35
2023-05-25T14:18:58.985Z,7.75
2023-05-25T14:21:56.673Z,7.13
2023-05-25T14:24:51.976Z,8.30
2023-05-25T14:27:39.853Z,7.47
2023-05-25T14:30:27.585Z,7.07
2023-05-25T14:33:17.382Z,7.55
2023-05-25T14:36:06.090Z,6.10
2023-05-25T14:38:55.220Z,6.15
2023-05-25T14:41:43.262Z,6.05
2023-05-25T14:44:30.952Z,5.97
2023-05-25T14:47:18.722Z,6.10
2023-05-25T14:50:07.528Z,6.70
2023-05-25T14:52:55.220Z,6.55
2023-05-25T14:55:44.625Z,6.80
2023-05-25T14:58:32.978Z,7.53
2023-05-25T15:01:23.094Z,7.07
2023-05-25T15:04:13.081Z,5.70
2023-05-25T15:07:01.514Z,7.53
2023-05-25T15:09:49.542Z,6.10
2023-05-25T15:12:38.667Z,5.85
2023-05-25T15:15:26.622Z,6.10
2023-05-25T15:18:14.430Z,6.28
2023-05-25T15:21:02.456Z,5.80
2023-05-25T15:23:50.276Z,4.75
2023-05-25T15:26:37.920Z,4.78
2023-05-25T15:29:27.037Z,4.28
2023-05-25T15:32:17.844Z,5.22
2023-05-25T15:35:06.384Z,5.45
2023-05-25T15:37:54.056Z,4.75
2023-05-25T15:40:41.841Z,4.80
2023-05-25T15:43:29.520Z,5.10
2023-05-25T15:46:18.652Z,5.80
2023-05-25T15:49:10.965Z,5.18
2023-05-25T15:51:58.666Z,4.82
2023-05-25T15:54:46.555Z,4.75
2023-05-25T15:57:34.366Z,4.22
2023-05-25T16:00:22.500Z,4.30
2023-05-25T16:03:11.673Z,4.38
2023-05-25T16:05:59.851Z,3.90
2023-05-25T16:08:47.716Z,4.10
2023-05-25T16:11:35.612Z,4.60
2023-05-25T16:14:23.641Z,4.25
2023-05-25T16:17:11.980Z,4.15
2023-05-25T16:20:01.224Z,4.60
2023-05-25T16:22:48.962Z,4.32
2023-05-25T16:25:36.756Z,4.57
2023-05-25T16:28:24.632Z,4.50
2023-05-25T16:31:13.538Z,5.35
2023-05-25T16:34:01.656Z,3.60
2023-05-25T16:36:50.832Z,4.25
2023-05-25T16:39:38.622Z,3.67
2023-05-25T16:42:26.414Z,3.72
2023-05-25T16:45:14.110Z,4.45
2023-05-25T16:48:01.757Z,3.65
2023-05-25T16:50:49.564Z,4.40
2023-05-25T16:53:38.756Z,4.75
2023-05-25T16:56:26.862Z,4.65
2023-05-25T16:59:14.874Z,4.18
2023-05-25T17:02:02.562Z,3.85
2023-05-25T17:04:50.401Z,5.15
2023-05-25T17:07:39.374Z,4.88
2023-05-25T17:10:28.457Z,4.97
2023-05-25T17:13:16.802Z,5.57
2023-05-25T17:16:04.554Z,4.53
2023-05-25T17:18:52.552Z,4.47
2023-05-25T17:21:40.256Z,4.70
2023-05-25T17:24:28.072Z,4.78
2023-05-25T17:27:17.667Z,4.35
2023-05-25T17:30:06.128Z,5.65
2023-05-25T17:32:54.634Z,5.60
2023-05-25T17:35:42.333Z,5.15
2023-05-25T17:38:30.307Z,5.20
2023-05-25T17:41:18.200Z,4.93
2023-05-25T17:44:07.599Z,5.15
2023-05-25T17:46:55.256Z,5.30
2023-05-25T17:49:43.121Z,6.60
2023-05-25T17:52:31.745Z,6.60
2023-05-25T17:55:20.640Z,6.72
2023-05-25T17:58:08.563Z,5.53
2023-05-25T18:00:57.844Z,6.75
2023-05-25T18:03:45.952Z,5.47
2023-05-25T18:06:34.139Z,6.00
2023-05-25T18:09:22.363Z,5.60
2023-05-25T18:12:10.578Z,5.10
2023-05-25T18:14:58.162Z,5.72
2023-05-25T18:17:47.384Z,5.63
2023-05-25T18:20:35.343Z,4.95
2023-05-25T18:23:23.394Z,4.97
2023-05-25T18:26:11.041Z,4.10
2023-05-25T18:28:58.691Z,6.18
2023-05-25T18:31:48.911Z,4.82
2023-05-25T18:34:38.125Z,5.13
2023-05-25T18:37:26.662Z,5.00
2023-05-25T18:40:14.706Z,5.05
2023-05-25T18:43:02.589Z,5.50
2023-05-25T18:45:50.260Z,5.50
2023-05-25T18:48:37.923Z,4.93
2023-05-25T18:51:26.996Z,5.57
2023-05-25T18:54:14.881Z,6.03
2023-05-25T18:57:03.054Z,5.70
2023-05-25T18:59:50.948Z,5.32
2023-05-25T19:02:39.115Z,6.00
2023-05-25T19:05:27.555Z,5.28
2023-05-25T19:08:16.797Z,5.35
2023-05-25T19:11:04.530Z,5.93
2023-05-25T19:13:52.307Z,8.25
2023-05-25T19:16:40.136Z,7.13
2023-05-25T19:19:27.864Z,8.07
2023-05-25T19:22:18.356Z,8.15
2023-05-25T19:25:08.729Z,7.05
2023-05-25T19:27:58.691Z,6.63
2023-05-25T19:30:46.447Z,7.75
2023-05-25T19:33:34.174Z,7.30
2023-05-25T19:36:22.810Z,7.30
2023-05-25T19:39:10.492Z,6.70
2023-05-25T19:42:00.308Z,6.90
2023-05-25T19:44:48.234Z,6.88
2023-05-25T19:47:36.024Z,6.50
2023-05-25T19:50:23.822Z,6.32
2023-05-25T19:53:11.561Z,6.65
2023-05-25T19:55:59.797Z,7.20
2023-05-25T19:58:48.886Z,6.18
2023-05-25T20:01:38.334Z,7.45
2023-05-25T20:04:26.432Z,6.18
2023-05-25T20:07:14.464Z,6.57
2023-05-25T20:10:02.107Z,6.00
2023-05-25T20:12:49.913Z,6.03
2023-05-25T20:15:39.163Z,6.38
2023-05-25T20:18:26.916Z,5.00
2023-05-25T20:21:15.003Z,5.78
2023-05-25T20:24:03.537Z,5.63
2023-05-25T20:26:56.619Z,5.43
2023-05-25T20:29:44.575Z,4.97
2023-05-25T20:32:33.785Z,5.82
2023-05-25T20:35:21.936Z,4.70
2023-05-25T20:38:09.709Z,5.30
2023-05-25T20:40:57.529Z,4.50
2023-05-25T20:43:45.309Z,5.18
2023-05-25T20:46:33.248Z,5.05
2023-05-25T20:49:24.459Z,5.85
2023-05-25T20:52:13.675Z,5.53
2023-05-25T20:55:01.585Z,5.07
2023-05-25T20:57:49.528Z,5.68
2023-05-25T21:00:37.284Z,5.32
2023-05-25T21:03:25.107Z,5.45
2023-05-25T21:06:14.555Z,5.85
2023-05-25T21:09:02.385Z,5.63
2023-05-25T21:11:50.305Z,5.72
2023-05-25T21:14:38.238Z,5.15
2023-05-25T21:17:26.097Z,5.60
2023-05-25T21:20:14.061Z,5.90
2023-05-25T21:23:03.245Z,5.95
2023-05-25T21:25:50.963Z,7.15
2023-05-25T21:28:38.873Z,5.38
2023-05-25T21:31:26.790Z,5.05
2023-05-25T21:34:15.056Z,5.45
2023-05-25T21:37:03.357Z,5.75
2023-05-25T21:39:52.598Z,6.30
2023-05-25T21:42:40.333Z,5.80
2023-05-25T21:45:28.139Z,5.80
2023-05-25T21:48:16.031Z,5.07
2023-05-25T21:51:03.936Z,6.22
2023-05-25T21:53:52.045Z,5.18
2023-05-25T21:56:41.128Z,6.13
2023-05-25T21:59:28.990Z,5.88
2023-05-25T22:02:16.780Z,5.80
2023-05-25T22:05:04.885Z,5.85
2023-05-25T22:07:55.040Z,5.13
2023-05-25T22:10:43.448Z,5.63
2023-05-25T22:13:32.779Z,5.35
2023-05-25T22:16:20.543Z,5.13
2023-05-25T22:19:08.845Z,5.90
2023-05-25T22:21:56.547Z,5.68
2023-05-25T22:24:44.250Z,4.88
2023-05-25T22:27:32.133Z,5.57
2023-05-25T22:30:21.285Z,4.95
2023-05-25T22:33:09.354Z,5.22
2023-05-25T22:35:57.091Z,5.28
2023-05-25T22:38:44.962Z,4.53
2023-05-25T22:41:32.725Z,5.00
2023-05-25T22:44:20.504Z,4.40
2023-05-25T22:47:09.618Z,4.95
2023-05-25T22:49:57.385Z,4.50
2023-05-25T22:52:45.466Z,4.28
2023-05-25T22:55:33.363Z,4.45
2023-05-25T22:58:21.224Z,4.10
2023-05-25T23:01:08.889Z,4.97
2023-05-25T23:03:59.653Z,4.50
2023-05-25T23:06:47.580Z,4.53
2023-05-25T23:09:35.309Z,4.53
2023-05-25T23:12:23.266Z,4.40
2023-05-25T23:15:12.331Z,4.30
2023-05-25T23:18:00.269Z,4.38
2023-05-25T23:20:50.489Z,5.00
2023-05-25T23:23:38.306Z,4.68
2023-05-25T23:26:26.630Z,4.93
2023-05-25T23:29:14.367Z,4.57
2023-05-25T23:32:02.520Z,5.15
2023-05-25T23:34:50.348Z,4.70
2023-05-25T23:37:39.639Z,4.65
2023-05-25T23:40:27.356Z,4.63
2023-05-25T23:43:15.218Z,4.82
2023-05-25T23:46:03.364Z,4.65
2023-05-25T23:48:51.273Z,5.75
2023-05-25T23:51:39.198Z,5.68
2023-05-25T23:54:28.253Z,5.55
2023-05-25T23:57:16.155Z,5.40
